Time;durP1;ratioP1;P1;durP2;ratioP2;P2;SDS_P1;SDS_P2;PMS_P1;PMS_P2;Temp;Humidity;BMP_temperature;BMP_pressure;BME280_temperature;BME280_humidity;BME280_pressure;Samples;Min_cycle;Max_cycle;Signal;HPM_P1;HPM_P2
2023/09/16 00:01:02;;;;;;;7.55;3.83;;;17.40;81.30;;;;;;4975580;28;20065;-83
2023/09/16 00:03:27;;;;;;;8.57;4.03;;;17.40;81.40;;;;;;4957718;28;20022;-82
2023/09/16 00:05:53;;;;;;;9.60;4.30;;;17.30;81.50;;;;;;4975301;28;20038;-83
2023/09/16 00:08:18;;;;;;;9.35;4.00;;;17.30;81.70;;;;;;4975478;28;20118;-84
2023/09/16 00:10:44;;;;;;;5.68;3.40;;;17.30;81.90;;;;;;4975214;28;20469;-84
2023/09/16 00:13:09;;;;;;;6.72;3.80;;;17.20;81.90;;;;;;4975124;28;20394;-85
2023/09/16 00:15:35;;;;;;;8.10;3.85;;;17.30;82.00;;;;;;4973762;28;20061;-85
2023/09/16 00:18:01;;;;;;;7.32;3.75;;;17.30;82.10;;;;;;4975013;28;20034;-84
2023/09/16 00:20:28;;;;;;;6.88;3.47;;;17.20;82.20;;;;;;4958176;28;20033;-85
2023/09/16 00:22:53;;;;;;;6.68;3.40;;;17.20;82.30;;;;;;4974918;28;20023;-84
2023/09/16 00:25:19;;;;;;;6.90;3.35;;;17.30;82.40;;;;;;4936372;29;20054;-84
2023/09/16 00:27:45;;;;;;;8.32;3.72;;;17.20;82.40;;;;;;4936510;29;20071;-85
2023/09/16 00:30:11;;;;;;;7.63;3.70;;;17.20;82.60;;;;;;4936305;29;20031;-85
2023/09/16 00:32:36;;;;;;;10.65;3.95;;;17.20;82.70;;;;;;4951142;29;20502;-84
2023/09/16 00:35:03;;;;;;;6.47;3.60;;;17.30;82.90;;;;;;4935783;29;20380;-83
2023/09/16 00:37:29;;;;;;;8.35;3.42;;;17.20;82.90;;;;;;4936053;29;20024;-85
2023/09/16 00:39:55;;;;;;;8.18;4.28;;;17.30;83.10;;;;;;4935715;29;20410;-84
2023/09/16 00:42:21;;;;;;;7.30;3.83;;;17.20;83.70;;;;;;4936197;29;20110;-84
2023/09/16 00:44:46;;;;;;;6.93;3.45;;;17.00;83.10;;;;;;4935017;29;20562;-84
2023/09/16 00:47:12;;;;;;;6.35;3.75;;;17.20;83.40;;;;;;4935742;29;20027;-84
2023/09/16 00:49:38;;;;;;;6.25;3.45;;;17.20;83.40;;;;;;4950292;29;20032;-83
2023/09/16 00:52:04;;;;;;;7.15;3.90;;;17.20;83.50;;;;;;4935858;29;20028;-83
2023/09/16 00:54:31;;;;;;;6.13;3.35;;;17.20;83.60;;;;;;4935416;29;20032;-82
2023/09/16 00:56:57;;;;;;;8.02;3.88;;;17.20;83.70;;;;;;4935382;29;20407;-83
2023/09/16 00:59:25;;;;;;;8.30;3.50;;;17.10;83.80;;;;;;4935527;29;20034;-84
2023/09/16 01:01:52;;;;;;;8.68;4.47;;;17.20;83.90;;;;;;4935253;29;20027;-81
2023/09/16 01:04:19;;;;;;;8.40;3.95;;;17.10;83.90;;;;;;4934955;29;20031;-83
2023/09/16 01:06:47;;;;;;;7.35;3.72;;;17.10;84.00;;;;;;4935207;29;20032;-84
2023/09/16 01:09:17;;;;;;;8.50;4.32;;;17.10;84.00;;;;;;4949700;29;20028;-82
2023/09/16 01:11:43;;;;;;;8.20;4.43;;;17.10;84.10;;;;;;4949691;29;20024;-83
2023/09/16 01:14:13;;;;;;;7.15;3.67;;;17.10;84.10;;;;;;4935113;29;20036;-84
2023/09/16 01:16:52;;;;;;;7.03;3.88;;;17.10;84.30;;;;;;4935393;29;20028;-83
2023/09/16 01:19:20;;;;;;;7.15;3.85;;;17.00;84.40;;;;;;4935365;29;20105;-84
2023/09/16 01:21:48;;;;;;;9.82;4.55;;;17.20;84.60;;;;;;4934096;29;20501;-85
2023/09/16 01:24:23;;;;;;;7.00;4.15;;;17.00;84.60;;;;;;4960107;28;20413;-85
2023/09/16 01:26:49;;;;;;;9.13;4.10;;;17.00;84.80;;;;;;4954716;28;20027;-84
2023/09/16 01:29:20;;;;;;;7.85;4.40;;;17.00;84.80;;;;;;4952546;28;20023;-84
2023/09/16 01:31:46;;;;;;;8.85;3.90;;;17.00;84.90;;;;;;4954339;28;20368;-84
2023/09/16 01:34:38;;;;;;;10.75;4.40;;;17.00;84.90;;;;;;4954102;29;20035;-83
2023/09/16 01:37:05;;;;;;;8.13;3.38;;;16.90;85.00;;;;;;4968684;28;20035;-85
2023/09/16 01:39:32;;;;;;;7.43;4.35;;;16.90;85.20;;;;;;4954044;29;20474;-84
2023/09/16 01:41:58;;;;;;;9.15;4.60;;;16.90;85.40;;;;;;4954291;29;20038;-83
2023/09/16 01:44:24;;;;;;;7.32;4.22;;;16.80;85.50;;;;;;4952807;28;20094;-84
2023/09/16 01:46:54;;;;;;;9.18;4.43;;;16.90;85.70;;;;;;4968706;28;20035;-83
2023/09/16 01:49:20;;;;;;;9.57;4.60;;;16.80;85.80;;;;;;4953746;29;20063;-82
2023/09/16 01:51:45;;;;;;;9.35;4.28;;;16.90;86.00;;;;;;4968868;28;20577;-84
2023/09/16 01:54:11;;;;;;;14.93;4.50;;;16.80;86.10;;;;;;4953930;29;20401;-84
2023/09/16 01:56:36;;;;;;;8.93;4.75;;;16.80;86.30;;;;;;4954253;29;20524;-83
2023/09/16 01:59:03;;;;;;;7.68;4.68;;;16.80;86.40;;;;;;4954083;29;20381;-83
2023/09/16 02:01:29;;;;;;;7.97;4.47;;;16.80;86.50;;;;;;4954170;29;20071;-84
2023/09/16 02:03:55;;;;;;;9.02;4.80;;;16.70;86.60;;;;;;4953730;29;20040;-84
2023/09/16 02:06:21;;;;;;;9.27;4.95;;;16.70;86.70;;;;;;4954222;29;20031;-82
2023/09/16 02:08:46;;;;;;;8.48;4.90;;;16.70;86.80;;;;;;4953824;29;20031;-82
2023/09/16 02:11:12;;;;;;;11.80;5.22;;;16.60;86.80;;;;;;4953836;29;20027;-83
2023/09/16 02:13:38;;;;;;;9.88;5.13;;;16.70;87.00;;;;;;4953943;29;20082;-83
2023/09/16 02:16:04;;;;;;;9.50;5.55;;;16.60;87.10;;;;;;4954019;29;20134;-84
2023/09/16 02:18:29;;;;;;;11.18;5.22;;;16.60;87.30;;;;;;4953896;28;20058;-83
2023/09/16 02:20:55;;;;;;;9.30;5.40;;;16.60;87.40;;;;;;4953974;29;20027;-83
2023/09/16 02:23:22;;;;;;;9.63;5.05;;;16.60;87.70;;;;;;4952458;28;20054;-82
2023/09/16 02:25:47;;;;;;;9.52;5.18;;;16.50;87.80;;;;;;4953477;29;20374;-84
2023/09/16 02:28:13;;;;;;;8.77;5.05;;;16.50;88.00;;;;;;4953893;29;20046;-84
2023/09/16 02:30:38;;;;;;;12.02;5.78;;;16.50;88.10;;;;;;4969192;28;20059;-84
2023/09/16 02:33:04;;;;;;;9.48;5.40;;;16.50;88.30;;;;;;4968444;28;20094;-84
2023/09/16 02:35:29;;;;;;;9.60;5.60;;;16.50;88.40;;;;;;4954084;29;20050;-83
2023/09/16 02:37:57;;;;;;;8.32;5.78;;;16.50;88.50;;;;;;4952419;28;20055;-84
2023/09/16 02:40:22;;;;;;;11.05;5.13;;;16.50;88.60;;;;;;4954745;28;20023;-83
2023/09/16 02:42:48;;;;;;;12.63;5.93;;;16.50;88.70;;;;;;4957112;29;20031;-83
2023/09/16 02:45:13;;;;;;;8.43;5.28;;;16.40;88.80;;;;;;4957019;29;20535;-83
2023/09/16 02:47:39;;;;;;;11.35;6.15;;;16.40;88.90;;;;;;4957165;29;20051;-84
2023/09/16 02:50:05;;;;;;;7.78;4.97;;;16.40;89.10;;;;;;4957308;29;20043;-84
2023/09/16 02:52:31;;;;;;;10.45;5.70;;;16.40;89.10;;;;;;4957717;29;20031;-83
2023/09/16 02:54:56;;;;;;;9.45;5.60;;;16.40;89.30;;;;;;4957474;29;20035;-84
2023/09/16 02:57:22;;;;;;;11.05;6.82;;;16.30;89.40;;;;;;4972127;28;20516;-82
2023/09/16 02:59:47;;;;;;;8.32;5.30;;;16.30;89.60;;;;;;4956950;29;20078;-81
2023/09/16 03:02:13;;;;;;;10.57;6.75;;;16.30;89.70;;;;;;4955311;28;20121;-82
2023/09/16 03:04:38;;;;;;;11.07;6.50;;;16.30;89.80;;;;;;4957056;29;20047;-83
2023/09/16 03:07:04;;;;;;;11.95;6.60;;;16.30;89.90;;;;;;4971807;28;20452;-82
2023/09/16 03:09:30;;;;;;;10.90;5.90;;;16.30;90.00;;;;;;4971403;28;20548;-83
2023/09/16 03:11:55;;;;;;;12.20;7.05;;;16.30;90.10;;;;;;4955808;28;20477;-83
2023/09/16 03:14:21;;;;;;;14.48;7.13;;;16.20;90.10;;;;;;4957028;29;20031;-83
2023/09/16 03:16:47;;;;;;;9.68;6.82;;;16.20;90.30;;;;;;4956319;28;20023;-83
2023/09/16 03:19:16;;;;;;;10.57;6.57;;;16.20;90.40;;;;;;4956854;29;20038;-84
2023/09/16 03:21:41;;;;;;;9.75;6.47;;;16.20;90.40;;;;;;4971780;28;20477;-84
2023/09/16 03:24:07;;;;;;;9.95;6.88;;;16.20;90.50;;;;;;4966021;28;20058;-85
2023/09/16 03:26:32;;;;;;;11.85;7.57;;;16.20;90.60;;;;;;4977201;28;20039;-85
2023/09/16 03:28:58;;;;;;;10.93;6.32;;;16.20;90.70;;;;;;4974831;28;20030;-84
2023/09/16 03:31:24;;;;;;;12.55;7.65;;;16.20;90.70;;;;;;4974223;28;20023;-83
2023/09/16 03:33:49;;;;;;;10.90;7.38;;;16.20;90.80;;;;;;4974970;28;20030;-82
2023/09/16 03:36:15;;;;;;;11.32;7.30;;;16.20;90.80;;;;;;4958307;28;20055;-83
2023/09/16 03:38:49;;;;;;;11.73;6.40;;;16.10;90.80;;;;;;4958114;28;20507;-84
2023/09/16 03:41:16;;;;;;;10.57;7.18;;;16.10;90.90;;;;;;4958462;28;20390;-83
2023/09/16 03:43:42;;;;;;;11.40;7.68;;;16.10;90.90;;;;;;4975474;28;20026;-85
2023/09/16 03:46:08;;;;;;;11.43;7.03;;;16.10;91.00;;;;;;4975293;28;20031;-83
2023/09/16 03:48:33;;;;;;;12.20;7.68;;;16.10;91.00;;;;;;4975467;28;20061;-84
2023/09/16 03:50:59;;;;;;;12.40;7.95;;;16.10;91.10;;;;;;4974643;28;20026;-82
2023/09/16 03:53:27;;;;;;;10.02;7.47;;;16.10;91.10;;;;;;4974566;28;20034;-82
2023/09/16 03:55:53;;;;;;;12.73;8.38;;;16.10;91.20;;;;;;4975348;28;20036;-83
2023/09/16 03:58:19;;;;;;;14.30;8.70;;;16.00;91.20;;;;;;4957712;28;20085;-82
2023/09/16 04:00:44;;;;;;;11.70;8.10;;;16.00;91.20;;;;;;4975157;28;20468;-84
2023/09/16 04:03:11;;;;;;;10.57;7.05;;;16.00;91.30;;;;;;4957695;28;20125;-84
2023/09/16 04:05:37;;;;;;;11.13;7.50;;;16.00;91.40;;;;;;4975146;28;20046;-84
2023/09/16 04:08:02;;;;;;;11.23;7.65;;;16.00;91.50;;;;;;4957784;28;20397;-83
2023/09/16 04:10:28;;;;;;;13.20;8.32;;;16.00;91.50;;;;;;4957219;28;20085;-83
2023/09/16 04:12:54;;;;;;;16.98;8.88;;;16.00;91.60;;;;;;4975207;28;20110;-82
2023/09/16 04:15:20;;;;;;;12.68;8.57;;;16.00;91.70;;;;;;4975164;28;20034;-84
2023/09/16 04:17:45;;;;;;;12.88;8.05;;;16.00;91.70;;;;;;4974667;28;20035;-83
2023/09/16 04:20:11;;;;;;;12.77;8.68;;;16.00;91.80;;;;;;4975102;28;20053;-83
2023/09/16 04:22:37;;;;;;;12.88;9.00;;;16.00;91.80;;;;;;4975064;28;20607;-83
2023/09/16 04:25:02;;;;;;;12.13;7.57;;;16.00;91.80;;;;;;4956929;28;20501;-84
2023/09/16 04:27:28;;;;;;;13.02;8.68;;;16.00;91.80;;;;;;4957308;28;20054;-83
2023/09/16 04:29:55;;;;;;;13.68;8.68;;;15.90;91.80;;;;;;4957394;28;20070;-84
2023/09/16 04:32:20;;;;;;;13.48;9.05;;;15.90;91.90;;;;;;4957383;28;20061;-84
2023/09/16 04:34:46;;;;;;;12.38;8.55;;;15.90;92.00;;;;;;4956821;28;20078;-83
2023/09/16 04:37:11;;;;;;;11.13;8.05;;;15.90;92.30;;;;;;4974558;28;20085;-82
2023/09/16 04:39:37;;;;;;;12.63;8.68;;;15.90;92.00;;;;;;4957117;28;20089;-81
2023/09/16 04:42:03;;;;;;;13.10;8.90;;;15.90;92.10;;;;;;4956867;28;20102;-83
2023/09/16 04:44:29;;;;;;;12.90;9.10;;;15.80;92.10;;;;;;4974343;28;20030;-83
2023/09/16 04:46:55;;;;;;;13.52;9.13;;;15.80;92.20;;;;;;4974251;28;20059;-83
2023/09/16 04:49:21;;;;;;;13.50;9.13;;;15.70;92.20;;;;;;4956472;28;20030;-84
2023/09/16 04:51:46;;;;;;;13.73;9.50;;;15.80;92.30;;;;;;4974174;28;20026;-83
2023/09/16 04:54:12;;;;;;;12.68;8.52;;;15.80;92.40;;;;;;4974451;28;20101;-84
2023/09/16 04:56:37;;;;;;;18.25;9.25;;;15.90;92.40;;;;;;4989262;28;20103;-82
2023/09/16 04:59:04;;;;;;;11.77;8.50;;;15.80;92.80;;;;;;4956702;28;20038;-82
2023/09/16 05:01:30;;;;;;;13.82;8.90;;;15.70;92.50;;;;;;4974530;28;20023;-83
2023/09/16 05:03:56;;;;;;;13.02;9.73;;;15.70;92.60;;;;;;4973157;28;20027;-84
2023/09/16 05:06:22;;;;;;;11.18;8.27;;;15.70;92.70;;;;;;4988523;28;20118;-83
2023/09/16 05:08:48;;;;;;;13.77;9.40;;;15.70;92.80;;;;;;4974271;28;20450;-84
2023/09/16 05:11:14;;;;;;;13.93;9.20;;;15.70;93.10;;;;;;4973849;28;20109;-84
2023/09/16 05:13:40;;;;;;;13.35;9.73;;;15.60;92.80;;;;;;4972101;28;20175;-83
2023/09/16 05:16:07;;;;;;;12.43;9.20;;;15.60;92.90;;;;;;4974222;28;20031;-84
2023/09/16 05:18:33;;;;;;;15.40;9.75;;;15.70;93.00;;;;;;4974030;28;20471;-82
2023/09/16 05:20:59;;;;;;;14.82;10.18;;;15.60;93.00;;;;;;4973651;28;20424;-83
2023/09/16 05:23:25;;;;;;;14.07;9.85;;;15.60;93.10;;;;;;4973664;28;20051;-83
2023/09/16 05:25:51;;;;;;;15.32;10.63;;;15.60;93.20;;;;;;4973517;28;20039;-84
2023/09/16 05:28:17;;;;;;;12.88;9.82;;;15.60;93.30;;;;;;4973732;28;20444;-83
2023/09/16 05:30:43;;;;;;;14.82;10.15;;;15.60;93.40;;;;;;4973665;28;20034;-82
2023/09/16 05:33:12;;;;;;;13.27;9.40;;;15.60;93.70;;;;;;4956528;28;20023;-82
2023/09/16 05:35:39;;;;;;;15.40;9.77;;;15.60;93.50;;;;;;4973662;28;20109;-82
2023/09/16 05:38:04;;;;;;;13.50;9.50;;;15.60;93.60;;;;;;4974287;28;20094;-82
2023/09/16 05:40:30;;;;;;;15.60;9.00;;;15.60;93.60;;;;;;4973915;28;20027;-82
2023/09/16 05:42:56;;;;;;;15.13;10.48;;;15.60;93.60;;;;;;4974630;28;20103;-82
2023/09/16 05:45:22;;;;;;;15.90;10.13;;;15.60;93.70;;;;;;4977100;28;20039;-84
2023/09/16 05:47:49;;;;;;;13.38;9.45;;;15.60;93.70;;;;;;4976299;28;20023;-82
2023/09/16 05:50:15;;;;;;;17.35;11.40;;;15.70;94.00;;;;;;4976500;28;20033;-81
2023/09/16 05:52:41;;;;;;;13.73;10.13;;;15.70;93.80;;;;;;5018383;28;20030;-82
2023/09/16 05:55:06;;;;;;;14.68;9.90;;;15.70;93.90;;;;;;5018935;28;20026;-82
2023/09/16 05:57:32;;;;;;;13.43;9.38;;;15.70;93.90;;;;;;5031804;28;20033;-82
2023/09/16 05:59:58;;;;;;;15.32;9.18;;;15.70;94.00;;;;;;5003563;28;20023;-81
2023/09/16 06:02:24;;;;;;;16.35;9.93;;;15.70;94.10;;;;;;4990558;28;20113;-82
2023/09/16 06:04:49;;;;;;;14.68;9.73;;;15.80;94.20;;;;;;5007892;28;20030;-82
2023/09/16 06:07:16;;;;;;;14.45;10.18;;;15.70;94.20;;;;;;5007746;28;20034;-80
2023/09/16 06:09:41;;;;;;;15.45;10.10;;;15.80;94.30;;;;;;5007841;28;20407;-80
2023/09/16 06:12:07;;;;;;;15.63;10.68;;;15.80;94.40;;;;;;4997621;28;20106;-80
2023/09/16 06:14:33;;;;;;;16.95;10.30;;;15.90;94.50;;;;;;4988167;28;20117;-82
2023/09/16 06:16:59;;;;;;;13.98;9.40;;;15.90;94.50;;;;;;4978982;28;20015;-83
2023/09/16 06:19:26;;;;;;;13.18;9.35;;;15.90;94.60;;;;;;4977510;28;20477;-83
2023/09/16 06:21:52;;;;;;;12.75;9.68;;;16.00;94.60;;;;;;4978110;28;20015;-82
2023/09/16 06:24:18;;;;;;;13.15;9.10;;;16.00;94.60;;;;;;4976842;28;20050;-82
2023/09/16 06:26:43;;;;;;;14.98;9.57;;;16.00;94.60;;;;;;4957992;28;20031;-81
2023/09/16 06:29:09;;;;;;;14.18;10.07;;;16.00;94.70;;;;;;4974798;28;20146;-82
2023/09/16 06:31:34;;;;;;;13.18;9.05;;;16.10;94.70;;;;;;4975973;28;20030;-82
2023/09/16 06:34:00;;;;;;;11.93;8.60;;;16.10;94.70;;;;;;4975699;28;20070;-83
2023/09/16 06:36:26;;;;;;;13.70;9.43;;;16.10;94.70;;;;;;4976435;28;20023;-83
2023/09/16 06:38:51;;;;;;;16.73;9.70;;;16.20;94.80;;;;;;4959253;28;20403;-83
2023/09/16 06:41:17;;;;;;;14.25;9.68;;;16.20;94.80;;;;;;4976119;28;20458;-80
2023/09/16 06:43:43;;;;;;;13.13;8.90;;;16.30;94.90;;;;;;4963475;28;20026;-83
2023/09/16 06:46:08;;;;;;;13.80;9.02;;;16.30;94.90;;;;;;4993588;28;20034;-83
2023/09/16 06:48:34;;;;;;;12.57;8.30;;;16.30;95.00;;;;;;4977672;28;20113;-81
2023/09/16 06:51:00;;;;;;;14.45;8.73;;;16.40;95.00;;;;;;4995416;28;20034;-83
2023/09/16 06:53:25;;;;;;;10.65;8.35;;;16.40;95.00;;;;;;4996149;28;20468;-84
2023/09/16 06:55:51;;;;;;;13.73;8.13;;;16.40;95.00;;;;;;4995549;28;20506;-83
2023/09/16 06:58:20;;;;;;;13.52;9.52;;;16.50;95.00;;;;;;4995370;28;20022;-84
2023/09/16 07:00:47;;;;;;;15.02;8.95;;;16.50;95.00;;;;;;4978986;28;20058;-84
2023/09/16 07:03:13;;;;;;;13.38;8.45;;;16.50;95.00;;;;;;4978659;28;20045;-84
2023/09/16 07:05:39;;;;;;;13.93;8.80;;;16.50;95.00;;;;;;4996679;28;20093;-83
2023/09/16 07:08:04;;;;;;;13.57;8.68;;;16.60;95.10;;;;;;4979077;28;20033;-84
2023/09/16 07:10:30;;;;;;;10.23;8.07;;;16.70;95.10;;;;;;4995971;28;20026;-84
2023/09/16 07:12:56;;;;;;;11.52;7.68;;;16.70;95.10;;;;;;4996015;28;20477;-84
2023/09/16 07:15:22;;;;;;;12.80;8.63;;;16.80;95.10;;;;;;4993700;28;20022;-84
2023/09/16 07:17:47;;;;;;;12.80;8.50;;;16.80;95.10;;;;;;4995825;28;20029;-85
2023/09/16 07:20:13;;;;;;;11.50;7.00;;;16.80;95.10;;;;;;4977621;28;20030;-84
2023/09/16 07:22:39;;;;;;;15.48;7.97;;;16.90;95.10;;;;;;4978102;28;20100;-85
2023/09/16 07:25:06;;;;;;;14.15;7.80;;;17.00;95.10;;;;;;4995068;28;20061;-85
2023/09/16 07:27:32;;;;;;;10.45;7.00;;;17.00;95.10;;;;;;4994136;28;20133;-84
2023/09/16 07:29:58;;;;;;;12.02;7.22;;;17.10;95.10;;;;;;4994984;28;20053;-84
2023/09/16 07:32:24;;;;;;;11.73;7.72;;;17.10;95.10;;;;;;4995235;28;20133;-85
2023/09/16 07:34:49;;;;;;;10.80;7.38;;;17.20;95.10;;;;;;4994786;28;20480;-85
2023/09/16 07:37:15;;;;;;;12.30;6.93;;;17.30;95.10;;;;;;4995002;28;20030;-84
2023/09/16 07:39:41;;;;;;;12.50;6.85;;;17.30;95.00;;;;;;4977403;28;20126;-83
2023/09/16 07:42:06;;;;;;;10.98;7.30;;;17.40;95.00;;;;;;4978297;28;20022;-85
2023/09/16 07:44:32;;;;;;;10.38;6.40;;;17.50;95.10;;;;;;4995031;28;20101;-84
2023/09/16 07:46:57;;;;;;;8.43;5.82;;;17.60;95.10;;;;;;4994932;28;20035;-85
2023/09/16 07:49:23;;;;;;;8.80;6.07;;;17.60;95.00;;;;;;4994949;28;20034;-85
2023/09/16 07:51:49;;;;;;;9.63;6.47;;;17.70;95.00;;;;;;4977306;28;20117;-85
2023/09/16 07:54:15;;;;;;;9.43;6.45;;;17.70;94.90;;;;;;4994566;28;20492;-85
2023/09/16 07:56:41;;;;;;;8.77;6.13;;;17.80;94.80;;;;;;4994454;28;20026;-85
2023/09/16 07:59:07;;;;;;;9.75;6.57;;;17.90;94.70;;;;;;4994908;28;20027;-87
2023/09/16 08:01:32;;;;;;;10.80;6.15;;;18.00;94.70;;;;;;4994397;28;20104;-85
2023/09/16 08:03:58;;;;;;;8.27;6.15;;;18.10;94.60;;;;;;4994391;28;20038;-85
2023/09/16 08:06:26;;;;;;;8.93;5.18;;;18.20;94.50;;;;;;4976873;28;20026;-79
2023/09/16 08:08:52;;;;;;;8.63;5.80;;;18.30;94.40;;;;;;4976892;28;20216;-84
2023/09/16 08:11:17;;;;;;;9.40;6.00;;;18.40;94.30;;;;;;4994335;28;20022;-81
2023/09/16 08:13:43;;;;;;;9.18;5.53;;;18.40;94.30;;;;;;4993866;28;20034;-79
2023/09/16 08:16:09;;;;;;;8.82;5.47;;;18.60;94.30;;;;;;4994234;28;20066;-80
2023/09/16 08:18:34;;;;;;;9.98;5.63;;;18.70;94.20;;;;;;4993638;28;20472;-81
2023/09/16 08:21:01;;;;;;;8.65;5.45;;;18.80;94.10;;;;;;4993678;28;20052;-81
2023/09/16 08:23:26;;;;;;;8.82;5.50;;;19.00;94.00;;;;;;4993477;28;20042;-80
2023/09/16 08:25:52;;;;;;;9.15;5.50;;;19.20;93.90;;;;;;4976035;28;20408;-81
2023/09/16 08:28:17;;;;;;;8.88;5.05;;;19.30;93.80;;;;;;4993715;28;20030;-81
2023/09/16 08:30:43;;;;;;;7.47;4.95;;;19.50;93.70;;;;;;4975890;28;20033;-79
2023/09/16 08:33:09;;;;;;;7.68;5.43;;;19.70;93.50;;;;;;4993533;28;20030;-79
2023/09/16 08:35:35;;;;;;;8.88;4.78;;;19.90;93.20;;;;;;4993614;28;20025;-78
2023/09/16 08:38:02;;;;;;;9.18;4.65;;;20.10;92.90;;;;;;4993455;28;20539;-79
2023/09/16 08:40:32;;;;;;;7.85;4.70;;;20.30;92.60;;;;;;4993380;28;20472;-82
2023/09/16 08:43:11;;;;;;;13.27;4.80;;;20.50;92.40;;;;;;4993425;28;20488;-83
2023/09/16 08:45:41;;;;;;;6.07;3.92;;;20.60;91.80;;;;;;4991403;28;20567;-84
2023/09/16 08:48:12;;;;;;;8.20;4.30;;;20.70;91.50;;;;;;4973507;28;20049;-83
2023/09/16 08:50:40;;;;;;;7.22;4.22;;;20.80;91.10;;;;;;4976963;28;20031;-83
2023/09/16 08:53:11;;;;;;;8.50;3.85;;;21.00;90.80;;;;;;4993889;28;20037;-81
2023/09/16 08:55:37;;;;;;;6.65;4.00;;;21.00;90.50;;;;;;4976556;28;20120;-83
2023/09/16 08:58:09;;;;;;;7.13;4.28;;;21.00;90.30;;;;;;4976568;28;20460;-83
2023/09/16 09:00:39;;;;;;;6.60;4.13;;;21.10;90.10;;;;;;4994251;28;20117;-83
2023/09/16 09:03:05;;;;;;;6.65;3.65;;;21.30;90.00;;;;;;4993966;28;20476;-83
2023/09/16 09:05:34;;;;;;;6.47;3.30;;;21.30;89.30;;;;;;4993951;28;20038;-82
2023/09/16 09:07:59;;;;;;;7.32;3.97;;;21.40;88.60;;;;;;4976222;28;20030;-82
2023/09/16 09:10:25;;;;;;;8.23;3.78;;;21.50;88.00;;;;;;4993678;28;20031;-82
2023/09/16 09:12:51;;;;;;;8.13;4.10;;;21.50;87.40;;;;;;4993906;28;20125;-82
2023/09/16 09:15:17;;;;;;;6.95;3.45;;;21.60;87.00;;;;;;4993953;28;20037;-81
2023/09/16 09:17:50;;;;;;;5.65;3.85;;;21.60;86.40;;;;;;4976214;28;20034;-81
2023/09/16 09:20:20;;;;;;;7.68;3.80;;;21.70;86.00;;;;;;4994034;28;20042;-82
2023/09/16 09:22:48;;;;;;;7.10;3.60;;;21.80;85.60;;;;;;4994389;28;20171;-83
2023/09/16 09:25:14;;;;;;;5.82;3.20;;;21.80;85.10;;;;;;4993494;28;20396;-79
2023/09/16 09:27:40;;;;;;;6.32;3.17;;;21.90;84.70;;;;;;4993063;28;20034;-78
2023/09/16 09:30:06;;;;;;;7.93;3.10;;;22.00;84.30;;;;;;4993020;28;20030;-78
2023/09/16 09:32:32;;;;;;;7.30;2.95;;;22.10;83.90;;;;;;4993176;28;20065;-79
2023/09/16 09:35:04;;;;;;;6.15;3.30;;;22.30;83.60;;;;;;4976252;28;20034;-78
2023/09/16 09:37:30;;;;;;;5.43;2.97;;;22.30;83.10;;;;;;4992466;28;20030;-78
2023/09/16 09:40:12;;;;;;;7.45;3.42;;;22.30;82.70;;;;;;4993514;28;20030;-78
2023/09/16 09:42:40;;;;;;;5.28;3.20;;;22.50;82.20;;;;;;4993449;28;20093;-79
2023/09/16 09:45:06;;;;;;;5.80;2.85;;;22.50;82.00;;;;;;4992823;28;20034;-78
2023/09/16 09:47:32;;;;;;;6.50;3.25;;;22.60;81.60;;;;;;4993581;28;20136;-82
2023/09/16 09:49:59;;;;;;;7.55;2.92;;;22.70;81.30;;;;;;4991370;28;20070;-81
2023/09/16 09:52:25;;;;;;;5.25;2.13;;;22.70;80.80;;;;;;4992875;28;20039;-81
2023/09/16 09:54:55;;;;;;;5.15;2.65;;;22.70;80.40;;;;;;4977516;28;20414;-81
2023/09/16 09:57:21;;;;;;;4.10;2.42;;;22.70;80.20;;;;;;4980876;28;20041;-82
2023/09/16 09:59:47;;;;;;;4.05;1.95;;;22.80;80.00;;;;;;4991873;28;20026;-81
2023/09/16 10:02:14;;;;;;;6.30;2.80;;;22.80;79.80;;;;;;4993397;28;20117;-82
2023/09/16 10:04:39;;;;;;;4.25;2.50;;;23.00;79.70;;;;;;4991996;28;20046;-81
2023/09/16 10:07:05;;;;;;;5.75;2.60;;;23.10;79.30;;;;;;4993629;28;20033;-82
2023/09/16 10:09:31;;;;;;;5.63;2.40;;;23.30;78.90;;;;;;4992069;28;20041;-81
2023/09/16 10:11:57;;;;;;;4.38;2.38;;;23.40;78.50;;;;;;4993289;28;20373;-83
2023/09/16 10:14:23;;;;;;;7.88;2.33;;;23.50;77.90;;;;;;4992642;28;20073;-83
2023/09/16 10:16:49;;;;;;;4.25;1.80;;;23.80;77.50;;;;;;4993126;28;20022;-83
2023/09/16 10:19:15;;;;;;;5.10;1.92;;;24.00;76.60;;;;;;4993578;28;20040;-82
2023/09/16 10:21:41;;;;;;;3.67;1.80;;;24.10;75.90;;;;;;4992710;28;20030;-81
2023/09/16 10:24:10;;;;;;;4.25;1.90;;;24.30;75.30;;;;;;4975183;28;20050;-82
2023/09/16 10:26:36;;;;;;;3.90;1.35;;;24.50;74.60;;;;;;4993117;28;20034;-82
2023/09/16 10:29:03;;;;;;;3.03;1.40;;;24.70;73.60;;;;;;4993108;28;20026;-81
2023/09/16 10:31:30;;;;;;;3.05;1.27;;;24.80;72.80;;;;;;4992907;28;20480;-82
2023/09/16 10:33:56;;;;;;;4.25;1.60;;;25.00;72.10;;;;;;4992937;28;20022;-82
2023/09/16 10:36:23;;;;;;;2.53;1.40;;;25.20;71.40;;;;;;4993516;28;20022;-81
2023/09/16 10:38:50;;;;;;;3.45;1.38;;;25.40;70.90;;;;;;4993228;28;20031;-81
2023/09/16 10:41:16;;;;;;;4.10;1.20;;;25.50;70.20;;;;;;4992432;28;20022;-82
2023/09/16 10:43:46;;;;;;;3.38;1.48;;;25.80;70.00;;;;;;4990911;28;20030;-84
2023/09/16 10:46:13;;;;;;;2.75;1.30;;;26.00;68.50;;;;;;4973993;28;20035;-83
2023/09/16 10:48:38;;;;;;;3.33;1.08;;;26.20;67.90;;;;;;4990839;28;20025;-84
2023/09/16 10:51:18;;;;;;;2.33;1.17;;;26.30;67.10;;;;;;4974868;28;20031;-79
2023/09/16 10:53:46;;;;;;;2.55;1.08;;;26.60;65.90;;;;;;4990564;28;20034;-81
2023/09/16 10:56:39;;;;;;;2.58;1.20;;;26.80;65.60;;;;;;4992244;28;20076;-81
2023/09/16 10:59:10;;;;;;;4.47;1.02;;;27.00;64.30;;;;;;4965123;28;20057;-82
2023/09/16 11:01:47;;;;;;;2.72;1.02;;;27.20;64.50;;;;;;4991968;28;20077;-82
2023/09/16 11:04:15;;;;;;;3.78;1.40;;;27.50;63.60;;;;;;4977878;28;20026;-82
2023/09/16 11:06:42;;;;;;;2.13;0.90;;;27.70;63.00;;;;;;4995463;28;20037;-81
2023/09/16 11:09:09;;;;;;;4.70;1.25;;;27.90;62.30;;;;;;4995234;28;20030;-81
2023/09/16 11:11:36;;;;;;;5.03;1.58;;;28.00;61.80;;;;;;4977757;28;20096;-82
2023/09/16 11:14:03;;;;;;;4.20;1.10;;;28.10;61.60;;;;;;4993973;28;20053;-83
2023/09/16 11:16:28;;;;;;;3.40;1.20;;;28.30;61.00;;;;;;4993645;28;20033;-81
2023/09/16 11:18:55;;;;;;;2.00;1.05;;;28.60;60.40;;;;;;4995144;28;20105;-80
2023/09/16 11:21:21;;;;;;;3.97;1.63;;;28.80;59.80;;;;;;4994749;28;20122;-81
2023/09/16 11:23:48;;;;;;;2.83;1.33;;;29.10;59.40;;;;;;4995168;28;20050;-82
2023/09/16 11:26:18;;;;;;;2.63;1.10;;;29.30;58.70;;;;;;4977885;28;20042;-84
2023/09/16 11:28:44;;;;;;;3.55;1.27;;;29.50;58.10;;;;;;4977751;28;20105;-82
2023/09/16 11:31:09;;;;;;;3.38;1.00;;;29.70;58.00;;;;;;4995251;28;20023;-83
2023/09/16 11:33:40;;;;;;;2.35;1.10;;;29.80;57.50;;;;;;4995175;28;20030;-81
2023/09/16 11:36:32;;;;;;;3.00;1.10;;;30.10;57.10;;;;;;4976809;28;20026;-82
2023/09/16 11:39:06;;;;;;;3.70;1.02;;;30.50;56.10;;;;;;4994595;28;20125;-83
2023/09/16 11:41:32;;;;;;;1.80;0.90;;;30.70;55.80;;;;;;4993393;28;20129;-82
2023/09/16 11:43:59;;;;;;;2.63;1.00;;;30.90;55.70;;;;;;4994549;28;20876;-85
2023/09/16 11:46:25;;;;;;;2.70;1.00;;;31.10;55.20;;;;;;4993615;28;20396;-86
2023/09/16 11:48:53;;;;;;;2.50;1.05;;;31.40;54.90;;;;;;4994720;28;20031;-83
2023/09/16 11:51:21;;;;;;;3.55;0.90;;;31.60;54.50;;;;;;4994994;28;20041;-82
2023/09/16 11:53:48;;;;;;;1.95;1.10;;;31.70;54.20;;;;;;4994615;28;20358;-81
2023/09/16 11:56:15;;;;;;;2.20;1.13;;;31.90;53.60;;;;;;4994638;28;20034;-85
2023/09/16 11:58:43;;;;;;;5.32;1.33;;;32.10;53.20;;;;;;4994683;28;20033;-84
2023/09/16 12:01:18;;;;;;;2.05;1.10;;;32.10;52.80;;;;;;4995029;28;20041;-83
2023/09/16 12:03:44;;;;;;;3.47;1.63;;;32.10;52.50;;;;;;4993373;28;20033;-82
2023/09/16 12:06:10;;;;;;;2.30;1.17;;;32.30;52.30;;;;;;4994646;28;20081;-83
2023/09/16 12:08:38;;;;;;;2.80;1.30;;;32.30;52.00;;;;;;4994680;28;20062;-81
2023/09/16 12:11:05;;;;;;;2.67;1.38;;;32.50;51.90;;;;;;4994913;28;20058;-84
2023/09/16 12:13:31;;;;;;;2.88;1.58;;;32.50;51.60;;;;;;4994869;28;20026;-83
2023/09/16 12:15:58;;;;;;;5.45;1.67;;;32.60;51.50;;;;;;4977685;28;20033;-83
2023/09/16 12:18:24;;;;;;;3.05;1.38;;;32.70;51.30;;;;;;4977417;28;20093;-85
2023/09/16 12:20:52;;;;;;;2.78;1.05;;;32.90;51.80;;;;;;4994633;28;20031;-86
2023/09/16 12:23:18;;;;;;;2.80;1.17;;;32.90;50.90;;;;;;4977133;28;20050;-84
2023/09/16 12:25:44;;;;;;;3.33;1.35;;;33.00;51.00;;;;;;4994884;28;20046;-84
2023/09/16 12:28:11;;;;;;;2.88;1.40;;;33.10;51.00;;;;;;4994846;28;20026;-85
2023/09/16 12:30:43;;;;;;;2.53;1.25;;;33.30;50.90;;;;;;4994814;28;20041;-83
2023/09/16 12:33:09;;;;;;;4.28;1.17;;;33.50;50.40;;;;;;4977299;28;20064;-84
2023/09/16 12:35:41;;;;;;;2.22;1.13;;;33.70;50.40;;;;;;4995065;28;20062;-86
2023/09/16 12:38:07;;;;;;;3.70;1.58;;;33.80;49.90;;;;;;4994644;28;20093;-84
2023/09/16 12:40:34;;;;;;;3.60;1.50;;;34.00;50.00;;;;;;4995039;28;20038;-85